McGrath, Alaska
Current Conditions -  °F | °C
As of 3:53 AM on Thursday 18 Dec 2014 (Local Time) from PAMC Reporting Station
Few Clouds Few Clouds  
Wind Chill: -2°   Ceiling: Unl
Heat Index: -2°   Visibility: 10mi
Dew Point: -7°   Wind: 0mph
Humidity: 79%   Direction: NA
Pressure: 29.65"   Gusts: NA
Location:  62.96°N, 155.6°W
Report Text: PAMC 181253Z 00000KT 10SM FEW017 M19/M22 A2965 RMK SLP049 T11891217 VIA AUTODIAL
Loading
Personal Weather Stations






























Interactive Weather Map New forecast layout! Learn more

10-Day Weather Forecast

Advertisements
Track Severe Weather on mobile